Aérodrome :
LOGIN :

S'inscrire | Disclaimer

   EN    FR    IT 

 










Légende :    VFR   VFR Marginal   IFR   IFR Intensif   IFR Très Intensif
Visi : 
Plafond : 
>= 8 km
>= 3000ft
5 à 8 km
1000 à 3000 ft
1500m à 5 km
500 à 1000 ft
800 à 1500m
200 à 500 ft
< 800m
< 200 ft
Symboles :   Orages  Brouillard  Fortes neiges  Fortes précipitations  Vent > 20 kt
SIGMETs :   Divers  Orages  Givrage  Turbulence  Onde Orograph.  Cendres Volcan.






- Altitude de l'aérodrome : 602 ft
- Code IATA : NVS


LFQG - Nevers

DERNIER METAR :
  • 291100Z AUTO 14009KT 9000 OVC020 09/05 Q1013

METARs EXPIRÉS :
  • 291030Z AUTO 13009KT 9999 OVC021 08/04 Q1014
  • 291000Z AUTO 13007KT 9999 BKN023 OVC028 07/04 Q1014
  • 290930Z AUTO 14005KT 110V190 9999 OVC028 07/04 Q1015
  • 290900Z AUTO 13005KT 100V160 9999 BKN025 OVC031 06/03 Q1015
  • 290830Z AUTO 13006KT 9999 OVC021 04/02 Q1016
  • 290800Z AUTO 13005KT 9999 OVC018 03/02 Q1016
  • 290730Z AUTO 13007KT 9999 OVC018 02/01 Q1016
  • 290700Z AUTO 13006KT 9999 OVC018 02/01 Q1017
  • 290630Z AUTO 13004KT 100V160 9000 BKN019 OVC031 01/00 Q1017
  • 290600Z AUTO 14006KT 9000 FEW020 OVC034 01/01 Q1017

TAF N/A



MET'MAP, la Météo Aéronautique d'un coup d'oeil ! - Copyright ORBIFLY Décembre 2007 - Disclaimer

ORBIFLY MET'MAP TEAM :

Programmation & Développement : Alexandra Zaïnal
Sur une idée originale de : Baudouin d'Aumeries
Soutien technique & logistique : Manuel Goepfert
Assistance : Marc-Olivier Méhu




SOURCES & CREDITS :

   NOAA